Lake Lancelot, Illinois
Current Conditions -  °F | °C
As of 5:54 AM on Friday 28 Nov 2014 (Local Time) from KPIA Reporting Station
Few Clouds Few Clouds  
Wind Chill:   Ceiling: Unl
Heat Index: 19°   Visibility: 10mi
Dew Point:   Wind: 8mph
Humidity: 65%   Direction: 150°SSE
Pressure: 30.28"   Gusts: NA
Location:  40.5976°N, 89.727°W
Report Text: KPIA 281154Z 15007KT 10SM FEW120 M07/M13 A3028 RMK AO2 SLP266 T10721128 11067 21094 58024
Loading
Personal Weather Stations






























Interactive Weather Map New forecast layout! Learn more

10-Day Weather Forecast

Advertisements
Track Severe Weather on mobile